sensor_id;sensor_type;location;lat;lon;timestamp;temperature;humidity
15257;DHT22;7731;50.720;6.912;2023-01-19T00:01:21;0.60;99.90
15257;DHT22;7731;50.720;6.912;2023-01-19T00:03:54;0.60;99.90
15257;DHT22;7731;50.720;6.912;2023-01-19T00:06:24;0.50;99.90
15257;DHT22;7731;50.720;6.912;2023-01-19T00:08:54;0.50;99.90
15257;DHT22;7731;50.720;6.912;2023-01-19T00:11:24;0.60;99.90
15257;DHT22;7731;50.720;6.912;2023-01-19T00:13:55;0.60;99.90
15257;DHT22;7731;50.720;6.912;2023-01-19T00:16:28;0.60;99.90
15257;DHT22;7731;50.720;6.912;2023-01-19T00:19:01;0.60;99.90
15257;DHT22;7731;50.720;6.912;2023-01-19T00:21:31;0.60;99.90
15257;DHT22;7731;50.720;6.912;2023-01-19T00:24:02;0.70;99.90
15257;DHT22;7731;50.720;6.912;2023-01-19T00:26:32;0.80;99.90
15257;DHT22;7731;50.720;6.912;2023-01-19T00:29:09;0.90;99.90
15257;DHT22;7731;50.720;6.912;2023-01-19T00:31:41;1.00;99.90
15257;DHT22;7731;50.720;6.912;2023-01-19T00:34:16;0.90;99.90
15257;DHT22;7731;50.720;6.912;2023-01-19T00:36:46;0.90;99.90
15257;DHT22;7731;50.720;6.912;2023-01-19T00:39:16;0.80;99.90
15257;DHT22;7731;50.720;6.912;2023-01-19T00:41:49;0.80;99.90
15257;DHT22;7731;50.720;6.912;2023-01-19T00:44:31;0.70;99.90
15257;DHT22;7731;50.720;6.912;2023-01-19T00:47:01;0.70;99.90
15257;DHT22;7731;50.720;6.912;2023-01-19T00:49:34;0.80;99.90
15257;DHT22;7731;50.720;6.912;2023-01-19T00:52:04;0.90;99.90
15257;DHT22;7731;50.720;6.912;2023-01-19T00:54:35;0.90;99.90
15257;DHT22;7731;50.720;6.912;2023-01-19T00:57:05;0.90;99.90
15257;DHT22;7731;50.720;6.912;2023-01-19T00:59:35;1.00;99.90
15257;DHT22;7731;50.720;6.912;2023-01-19T01:02:05;1.00;99.90
15257;DHT22;7731;50.720;6.912;2023-01-19T01:04:41;0.90;99.90
15257;DHT22;7731;50.720;6.912;2023-01-19T01:07:11;0.90;99.90
15257;DHT22;7731;50.720;6.912;2023-01-19T01:09:41;0.80;99.90
15257;DHT22;7731;50.720;6.912;2023-01-19T01:12:11;0.90;99.90
15257;DHT22;7731;50.720;6.912;2023-01-19T01:14:41;0.80;99.90
15257;DHT22;7731;50.720;6.912;2023-01-19T01:17:12;0.90;99.90
15257;DHT22;7731;50.720;6.912;2023-01-19T01:19:44;1.00;99.90
15257;DHT22;7731;50.720;6.912;2023-01-19T01:22:14;1.00;99.90
15257;DHT22;7731;50.720;6.912;2023-01-19T01:24:45;1.00;99.90
15257;DHT22;7731;50.720;6.912;2023-01-19T01:27:15;1.00;99.90
15257;DHT22;7731;50.720;6.912;2023-01-19T01:29:45;0.90;99.90
15257;DHT22;7731;50.720;6.912;2023-01-19T01:32:16;0.90;99.90
15257;DHT22;7731;50.720;6.912;2023-01-19T01:34:51;0.90;99.90
15257;DHT22;7731;50.720;6.912;2023-01-19T01:37:21;0.90;99.90
15257;DHT22;7731;50.720;6.912;2023-01-19T01:39:51;0.90;99.90
15257;DHT22;7731;50.720;6.912;2023-01-19T01:42:30;0.80;99.90
15257;DHT22;7731;50.720;6.912;2023-01-19T01:45:03;0.80;99.90
15257;DHT22;7731;50.720;6.912;2023-01-19T01:47:47;0.90;99.90
15257;DHT22;7731;50.720;6.912;2023-01-19T01:50:28;0.90;99.90
15257;DHT22;7731;50.720;6.912;2023-01-19T01:53:04;0.80;99.90
15257;DHT22;7731;50.720;6.912;2023-01-19T01:55:42;0.90;99.90
15257;DHT22;7731;50.720;6.912;2023-01-19T01:58:16;1.00;99.90
15257;DHT22;7731;50.720;6.912;2023-01-19T02:00:46;1.10;99.90
15257;DHT22;7731;50.720;6.912;2023-01-19T02:03:29;1.10;99.90
15257;DHT22;7731;50.720;6.912;2023-01-19T02:06:04;1.10;99.90
15257;DHT22;7731;50.720;6.912;2023-01-19T02:08:40;1.10;99.90
15257;DHT22;7731;50.720;6.912;2023-01-19T02:11:28;1.10;99.90
15257;DHT22;7731;50.720;6.912;2023-01-19T02:14:11;1.10;99.90
15257;DHT22;7731;50.720;6.912;2023-01-19T02:16:42;1.10;99.90
15257;DHT22;7731;50.720;6.912;2023-01-19T02:19:15;1.10;99.90
15257;DHT22;7731;50.720;6.912;2023-01-19T02:21:58;1.10;99.90
15257;DHT22;7731;50.720;6.912;2023-01-19T02:24:36;1.00;99.90
15257;DHT22;7731;50.720;6.912;2023-01-19T02:27:07;1.00;99.90
15257;DHT22;7731;50.720;6.912;2023-01-19T02:29:42;1.00;99.90
15257;DHT22;7731;50.720;6.912;2023-01-19T02:32:12;1.00;99.90
15257;DHT22;7731;50.720;6.912;2023-01-19T02:34:43;1.00;99.90
15257;DHT22;7731;50.720;6.912;2023-01-19T02:37:16;1.00;99.90
15257;DHT22;7731;50.720;6.912;2023-01-19T02:39:52;1.00;99.90
15257;DHT22;7731;50.720;6.912;2023-01-19T02:42:31;1.10;99.90
15257;DHT22;7731;50.720;6.912;2023-01-19T02:45:07;1.20;99.90
15257;DHT22;7731;50.720;6.912;2023-01-19T02:47:43;1.20;99.90
15257;DHT22;7731;50.720;6.912;2023-01-19T02:50:38;1.20;99.90
15257;DHT22;7731;50.720;6.912;2023-01-19T02:56:46;1.30;99.90
15257;DHT22;7731;50.720;6.912;2023-01-19T02:59:45;1.50;99.90
15257;DHT22;7731;50.720;6.912;2023-01-19T03:02:29;1.60;99.90
15257;DHT22;7731;50.720;6.912;2023-01-19T03:05:20;1.60;99.90
15257;DHT22;7731;50.720;6.912;2023-01-19T03:08:06;1.70;99.90
15257;DHT22;7731;50.720;6.912;2023-01-19T03:10:48;1.70;99.90
15257;DHT22;7731;50.720;6.912;2023-01-19T03:13:41;1.70;99.90
15257;DHT22;7731;50.720;6.912;2023-01-19T03:16:19;1.70;99.90
15257;DHT22;7731;50.720;6.912;2023-01-19T03:18:55;1.60;99.90
15257;DHT22;7731;50.720;6.912;2023-01-19T03:21:34;1.50;99.90
15257;DHT22;7731;50.720;6.912;2023-01-19T03:24:08;1.40;99.90
15257;DHT22;7731;50.720;6.912;2023-01-19T03:26:45;1.30;99.90
15257;DHT22;7731;50.720;6.912;2023-01-19T03:29:21;1.30;99.90
15257;DHT22;7731;50.720;6.912;2023-01-19T03:31:58;1.30;99.90
15257;DHT22;7731;50.720;6.912;2023-01-19T03:34:33;1.40;99.90
15257;DHT22;7731;50.720;6.912;2023-01-19T03:37:06;1.50;99.90
15257;DHT22;7731;50.720;6.912;2023-01-19T03:39:40;1.60;99.90
15257;DHT22;7731;50.720;6.912;2023-01-19T03:42:14;1.60;99.90
15257;DHT22;7731;50.720;6.912;2023-01-19T03:44:48;1.50;99.90
15257;DHT22;7731;50.720;6.912;2023-01-19T03:47:22;1.40;99.90
15257;DHT22;7731;50.720;6.912;2023-01-19T03:49:55;1.40;99.90
15257;DHT22;7731;50.720;6.912;2023-01-19T03:52:31;1.30;99.90
15257;DHT22;7731;50.720;6.912;2023-01-19T03:55:05;1.30;99.90
15257;DHT22;7731;50.720;6.912;2023-01-19T03:57:36;1.30;99.90
15257;DHT22;7731;50.720;6.912;2023-01-19T04:00:11;1.20;99.90
15257;DHT22;7731;50.720;6.912;2023-01-19T04:02:42;1.20;99.90
15257;DHT22;7731;50.720;6.912;2023-01-19T04:05:13;1.20;99.90
15257;DHT22;7731;50.720;6.912;2023-01-19T04:07:47;1.10;99.90
15257;DHT22;7731;50.720;6.912;2023-01-19T04:10:21;1.20;99.90
15257;DHT22;7731;50.720;6.912;2023-01-19T04:12:56;1.20;99.90
15257;DHT22;7731;50.720;6.912;2023-01-19T04:15:30;1.20;99.90
15257;DHT22;7731;50.720;6.912;2023-01-19T04:18:01;1.20;99.90
15257;DHT22;7731;50.720;6.912;2023-01-19T04:20:32;1.20;99.90
15257;DHT22;7731;50.720;6.912;2023-01-19T04:23:03;1.20;99.90
15257;DHT22;7731;50.720;6.912;2023-01-19T04:25:33;1.20;99.90
15257;DHT22;7731;50.720;6.912;2023-01-19T04:28:05;1.30;99.90
15257;DHT22;7731;50.720;6.912;2023-01-19T04:30:37;1.50;99.90
15257;DHT22;7731;50.720;6.912;2023-01-19T04:33:08;1.60;99.90
15257;DHT22;7731;50.720;6.912;2023-01-19T04:35:38;1.70;99.90
15257;DHT22;7731;50.720;6.912;2023-01-19T04:38:08;1.80;99.90
15257;DHT22;7731;50.720;6.912;2023-01-19T04:40:38;1.80;99.90
15257;DHT22;7731;50.720;6.912;2023-01-19T04:43:09;1.80;99.90
15257;DHT22;7731;50.720;6.912;2023-01-19T04:45:42;1.80;99.90
15257;DHT22;7731;50.720;6.912;2023-01-19T04:48:13;1.80;99.90
15257;DHT22;7731;50.720;6.912;2023-01-19T04:50:44;1.80;99.90
15257;DHT22;7731;50.720;6.912;2023-01-19T04:53:15;1.90;99.90
15257;DHT22;7731;50.720;6.912;2023-01-19T04:55:53;2.00;99.90
15257;DHT22;7731;50.720;6.912;2023-01-19T04:58:24;2.00;99.90
15257;DHT22;7731;50.720;6.912;2023-01-19T05:00:57;2.00;99.90
15257;DHT22;7731;50.720;6.912;2023-01-19T05:03:27;2.10;99.90
15257;DHT22;7731;50.720;6.912;2023-01-19T05:05:58;2.10;99.90
15257;DHT22;7731;50.720;6.912;2023-01-19T05:08:28;2.10;99.90
15257;DHT22;7731;50.720;6.912;2023-01-19T05:10:58;2.00;99.90
15257;DHT22;7731;50.720;6.912;2023-01-19T05:13:28;2.10;99.90
15257;DHT22;7731;50.720;6.912;2023-01-19T05:16:02;2.10;99.90
15257;DHT22;7731;50.720;6.912;2023-01-19T05:18:33;2.10;99.90
15257;DHT22;7731;50.720;6.912;2023-01-19T05:21:06;2.20;99.90
15257;DHT22;7731;50.720;6.912;2023-01-19T05:23:36;2.20;99.90
15257;DHT22;7731;50.720;6.912;2023-01-19T05:26:07;2.20;99.90
15257;DHT22;7731;50.720;6.912;2023-01-19T05:28:37;2.10;99.90
15257;DHT22;7731;50.720;6.912;2023-01-19T05:31:10;2.10;99.90
15257;DHT22;7731;50.720;6.912;2023-01-19T05:33:40;2.10;99.90
15257;DHT22;7731;50.720;6.912;2023-01-19T05:36:10;2.10;99.90
15257;DHT22;7731;50.720;6.912;2023-01-19T05:38:40;2.10;99.90
15257;DHT22;7731;50.720;6.912;2023-01-19T05:41:11;2.20;99.90
15257;DHT22;7731;50.720;6.912;2023-01-19T05:43:41;2.20;99.90
15257;DHT22;7731;50.720;6.912;2023-01-19T05:46:13;2.20;99.90
15257;DHT22;7731;50.720;6.912;2023-01-19T05:48:44;2.30;99.90
15257;DHT22;7731;50.720;6.912;2023-01-19T05:51:16;2.30;99.90
15257;DHT22;7731;50.720;6.912;2023-01-19T05:54:37;2.30;99.90
15257;DHT22;7731;50.720;6.912;2023-01-19T05:57:08;2.30;99.90
15257;DHT22;7731;50.720;6.912;2023-01-19T05:59:38;2.40;99.90
15257;DHT22;7731;50.720;6.912;2023-01-19T06:02:11;2.30;99.90
15257;DHT22;7731;50.720;6.912;2023-01-19T06:04:41;2.40;99.90
15257;DHT22;7731;50.720;6.912;2023-01-19T06:07:12;2.50;99.90
15257;DHT22;7731;50.720;6.912;2023-01-19T06:09:42;2.40;99.90
15257;DHT22;7731;50.720;6.912;2023-01-19T06:12:12;2.50;99.90
15257;DHT22;7731;50.720;6.912;2023-01-19T06:14:42;2.50;99.90
15257;DHT22;7731;50.720;6.912;2023-01-19T06:17:15;2.50;99.90
15257;DHT22;7731;50.720;6.912;2023-01-19T06:19:46;2.50;99.90
15257;DHT22;7731;50.720;6.912;2023-01-19T06:22:16;2.40;99.90
15257;DHT22;7731;50.720;6.912;2023-01-19T06:24:50;2.40;99.90
15257;DHT22;7731;50.720;6.912;2023-01-19T06:27:20;2.40;99.90
15257;DHT22;7731;50.720;6.912;2023-01-19T06:29:54;2.40;99.90
15257;DHT22;7731;50.720;6.912;2023-01-19T06:32:26;2.60;99.90
15257;DHT22;7731;50.720;6.912;2023-01-19T06:34:56;2.50;99.90
15257;DHT22;7731;50.720;6.912;2023-01-19T06:37:27;2.40;99.90
15257;DHT22;7731;50.720;6.912;2023-01-19T06:39:57;2.30;99.90
15257;DHT22;7731;50.720;6.912;2023-01-19T06:42:27;2.10;99.90
15257;DHT22;7731;50.720;6.912;2023-01-19T06:44:59;2.00;99.90
15257;DHT22;7731;50.720;6.912;2023-01-19T06:47:32;2.00;99.90
15257;DHT22;7731;50.720;6.912;2023-01-19T06:50:02;1.80;99.90
15257;DHT22;7731;50.720;6.912;2023-01-19T06:52:33;1.70;99.90
15257;DHT22;7731;50.720;6.912;2023-01-19T06:55:08;1.60;99.90
15257;DHT22;7731;50.720;6.912;2023-01-19T06:57:40;1.40;99.90
15257;DHT22;7731;50.720;6.912;2023-01-19T07:00:11;1.40;99.90
15257;DHT22;7731;50.720;6.912;2023-01-19T07:02:45;1.40;99.90
15257;DHT22;7731;50.720;6.912;2023-01-19T07:05:15;1.40;99.90
15257;DHT22;7731;50.720;6.912;2023-01-19T07:07:51;1.30;99.90
15257;DHT22;7731;50.720;6.912;2023-01-19T07:10:23;1.40;99.90
15257;DHT22;7731;50.720;6.912;2023-01-19T07:13:13;1.40;99.90
15257;DHT22;7731;50.720;6.912;2023-01-19T07:15:43;1.40;99.90
15257;DHT22;7731;50.720;6.912;2023-01-19T07:18:16;1.40;99.90
15257;DHT22;7731;50.720;6.912;2023-01-19T07:20:46;1.40;99.90
15257;DHT22;7731;50.720;6.912;2023-01-19T07:23:16;1.30;99.90
15257;DHT22;7731;50.720;6.912;2023-01-19T07:25:46;1.30;99.90
15257;DHT22;7731;50.720;6.912;2023-01-19T07:28:19;1.30;99.90
15257;DHT22;7731;50.720;6.912;2023-01-19T07:30:50;1.30;99.90
15257;DHT22;7731;50.720;6.912;2023-01-19T07:33:27;1.30;99.90
15257;DHT22;7731;50.720;6.912;2023-01-19T07:35:57;1.30;99.90
15257;DHT22;7731;50.720;6.912;2023-01-19T07:38:27;1.20;99.90
15257;DHT22;7731;50.720;6.912;2023-01-19T07:41:01;1.20;99.90
15257;DHT22;7731;50.720;6.912;2023-01-19T07:43:32;1.30;99.90
15257;DHT22;7731;50.720;6.912;2023-01-19T07:46:05;1.30;99.90
15257;DHT22;7731;50.720;6.912;2023-01-19T07:48:41;1.30;99.90
15257;DHT22;7731;50.720;6.912;2023-01-19T07:51:13;1.30;99.90
15257;DHT22;7731;50.720;6.912;2023-01-19T07:53:45;1.30;99.90
15257;DHT22;7731;50.720;6.912;2023-01-19T07:56:17;1.30;99.90
15257;DHT22;7731;50.720;6.912;2023-01-19T07:58:49;1.30;99.90
15257;DHT22;7731;50.720;6.912;2023-01-19T08:01:20;1.40;99.90
15257;DHT22;7731;50.720;6.912;2023-01-19T08:03:53;1.40;99.90
15257;DHT22;7731;50.720;6.912;2023-01-19T08:06:26;1.40;99.90
15257;DHT22;7731;50.720;6.912;2023-01-19T08:09:01;1.40;99.90
15257;DHT22;7731;50.720;6.912;2023-01-19T08:11:33;1.40;99.90
15257;DHT22;7731;50.720;6.912;2023-01-19T08:14:03;1.50;99.90
15257;DHT22;7731;50.720;6.912;2023-01-19T08:16:34;1.50;99.90
15257;DHT22;7731;50.720;6.912;2023-01-19T08:19:07;1.50;99.90
15257;DHT22;7731;50.720;6.912;2023-01-19T08:21:37;1.60;99.90
15257;DHT22;7731;50.720;6.912;2023-01-19T08:24:16;1.60;99.90
15257;DHT22;7731;50.720;6.912;2023-01-19T08:26:49;1.70;99.90
15257;DHT22;7731;50.720;6.912;2023-01-19T08:29:19;1.70;99.90
15257;DHT22;7731;50.720;6.912;2023-01-19T08:31:49;1.70;99.90
15257;DHT22;7731;50.720;6.912;2023-01-19T08:34:24;1.80;99.90
15257;DHT22;7731;50.720;6.912;2023-01-19T08:36:57;1.80;99.90
15257;DHT22;7731;50.720;6.912;2023-01-19T08:39:27;1.80;99.90
15257;DHT22;7731;50.720;6.912;2023-01-19T08:41:57;2.00;99.90
15257;DHT22;7731;50.720;6.912;2023-01-19T08:44:28;2.00;99.90
15257;DHT22;7731;50.720;6.912;2023-01-19T08:46:58;2.10;99.90
15257;DHT22;7731;50.720;6.912;2023-01-19T08:49:31;2.00;99.90
15257;DHT22;7731;50.720;6.912;2023-01-19T08:52:01;2.00;99.90
15257;DHT22;7731;50.720;6.912;2023-01-19T08:54:31;2.00;99.90
15257;DHT22;7731;50.720;6.912;2023-01-19T08:57:01;2.20;99.90
15257;DHT22;7731;50.720;6.912;2023-01-19T08:59:32;2.20;99.90
15257;DHT22;7731;50.720;6.912;2023-01-19T09:02:04;2.30;99.90
15257;DHT22;7731;50.720;6.912;2023-01-19T09:04:38;2.40;99.90
15257;DHT22;7731;50.720;6.912;2023-01-19T09:07:08;2.50;99.90
15257;DHT22;7731;50.720;6.912;2023-01-19T09:09:38;2.40;99.90
15257;DHT22;7731;50.720;6.912;2023-01-19T09:12:09;2.40;99.90
15257;DHT22;7731;50.720;6.912;2023-01-19T09:14:39;2.40;99.90
15257;DHT22;7731;50.720;6.912;2023-01-19T09:17:09;2.50;99.90
15257;DHT22;7731;50.720;6.912;2023-01-19T09:19:43;2.60;99.90
15257;DHT22;7731;50.720;6.912;2023-01-19T09:22:13;2.60;99.90
15257;DHT22;7731;50.720;6.912;2023-01-19T09:24:43;2.70;99.90
15257;DHT22;7731;50.720;6.912;2023-01-19T09:27:13;2.80;99.90
15257;DHT22;7731;50.720;6.912;2023-01-19T09:29:46;2.70;99.90
15257;DHT22;7731;50.720;6.912;2023-01-19T09:32:22;2.70;99.90
15257;DHT22;7731;50.720;6.912;2023-01-19T09:34:55;2.70;99.90
15257;DHT22;7731;50.720;6.912;2023-01-19T09:37:25;2.70;99.90
15257;DHT22;7731;50.720;6.912;2023-01-19T09:39:55;2.60;99.90
15257;DHT22;7731;50.720;6.912;2023-01-19T09:42:30;2.50;99.90
15257;DHT22;7731;50.720;6.912;2023-01-19T09:45:11;2.50;99.90
15257;DHT22;7731;50.720;6.912;2023-01-19T09:47:45;2.50;99.90
15257;DHT22;7731;50.720;6.912;2023-01-19T09:50:25;2.50;99.90
15257;DHT22;7731;50.720;6.912;2023-01-19T09:53:04;2.70;99.90
15257;DHT22;7731;50.720;6.912;2023-01-19T09:55:42;2.70;99.90
15257;DHT22;7731;50.720;6.912;2023-01-19T09:58:13;2.80;99.90
15257;DHT22;7731;50.720;6.912;2023-01-19T10:00:49;2.80;99.90
15257;DHT22;7731;50.720;6.912;2023-01-19T10:03:26;2.90;99.90
15257;DHT22;7731;50.720;6.912;2023-01-19T10:06:01;2.80;99.90
15257;DHT22;7731;50.720;6.912;2023-01-19T10:08:39;2.80;99.90
15257;DHT22;7731;50.720;6.912;2023-01-19T10:11:28;2.90;99.90
15257;DHT22;7731;50.720;6.912;2023-01-19T10:14:23;2.90;99.90
15257;DHT22;7731;50.720;6.912;2023-01-19T10:17:05;2.90;99.90
15257;DHT22;7731;50.720;6.912;2023-01-19T10:19:48;3.00;99.90
15257;DHT22;7731;50.720;6.912;2023-01-19T10:22:26;2.90;99.90
15257;DHT22;7731;50.720;6.912;2023-01-19T10:25:03;2.90;99.90
15257;DHT22;7731;50.720;6.912;2023-01-19T10:27:46;3.00;99.90
15257;DHT22;7731;50.720;6.912;2023-01-19T10:30:20;3.00;99.90
15257;DHT22;7731;50.720;6.912;2023-01-19T10:32:52;2.90;99.90
15257;DHT22;7731;50.720;6.912;2023-01-19T10:35:23;2.80;99.90
15257;DHT22;7731;50.720;6.912;2023-01-19T10:37:59;2.80;99.90
15257;DHT22;7731;50.720;6.912;2023-01-19T10:40:33;2.90;99.90
15257;DHT22;7731;50.720;6.912;2023-01-19T10:46:32;3.00;99.90
15257;DHT22;7731;50.720;6.912;2023-01-19T10:49:24;3.00;99.90
15257;DHT22;7731;50.720;6.912;2023-01-19T10:51:58;3.10;99.90
15257;DHT22;7731;50.720;6.912;2023-01-19T10:54:33;3.20;99.90
15257;DHT22;7731;50.720;6.912;2023-01-19T10:57:08;3.30;99.90
15257;DHT22;7731;50.720;6.912;2023-01-19T10:59:47;3.40;99.90
15257;DHT22;7731;50.720;6.912;2023-01-19T11:02:20;3.40;99.90
15257;DHT22;7731;50.720;6.912;2023-01-19T11:04:56;3.40;99.90
15257;DHT22;7731;50.720;6.912;2023-01-19T11:07:29;3.40;99.90
15257;DHT22;7731;50.720;6.912;2023-01-19T11:10:28;3.40;99.90
15257;DHT22;7731;50.720;6.912;2023-01-19T11:13:02;3.50;99.90
15257;DHT22;7731;50.720;6.912;2023-01-19T11:15:41;3.50;99.90
15257;DHT22;7731;50.720;6.912;2023-01-19T11:18:23;3.60;99.90
15257;DHT22;7731;50.720;6.912;2023-01-19T11:21:00;3.80;99.90
15257;DHT22;7731;50.720;6.912;2023-01-19T11:23:34;3.90;99.90
15257;DHT22;7731;50.720;6.912;2023-01-19T11:26:14;4.00;99.90
15257;DHT22;7731;50.720;6.912;2023-01-19T11:28:54;3.90;99.90
15257;DHT22;7731;50.720;6.912;2023-01-19T11:31:32;3.90;99.90
15257;DHT22;7731;50.720;6.912;2023-01-19T11:34:20;4.10;99.90
15257;DHT22;7731;50.720;6.912;2023-01-19T11:36:56;4.00;99.90
15257;DHT22;7731;50.720;6.912;2023-01-19T11:39:33;4.10;99.90
15257;DHT22;7731;50.720;6.912;2023-01-19T11:42:18;4.20;99.90
15257;DHT22;7731;50.720;6.912;2023-01-19T11:44:57;4.40;99.90
15257;DHT22;7731;50.720;6.912;2023-01-19T11:47:36;4.60;99.90
15257;DHT22;7731;50.720;6.912;2023-01-19T11:50:20;4.70;99.90
15257;DHT22;7731;50.720;6.912;2023-01-19T11:52:56;4.80;99.90
15257;DHT22;7731;50.720;6.912;2023-01-19T11:55:36;5.00;99.90
15257;DHT22;7731;50.720;6.912;2023-01-19T11:58:15;5.00;99.90
15257;DHT22;7731;50.720;6.912;2023-01-19T12:00:50;5.10;99.90
15257;DHT22;7731;50.720;6.912;2023-01-19T12:03:27;5.60;99.90
15257;DHT22;7731;50.720;6.912;2023-01-19T12:06:03;6.10;99.90
15257;DHT22;7731;50.720;6.912;2023-01-19T12:08:41;6.90;99.90
15257;DHT22;7731;50.720;6.912;2023-01-19T12:11:17;7.20;99.90
15257;DHT22;7731;50.720;6.912;2023-01-19T12:13:54;7.10;99.90
15257;DHT22;7731;50.720;6.912;2023-01-19T12:16:29;6.60;99.90
15257;DHT22;7731;50.720;6.912;2023-01-19T12:19:05;6.50;99.90
15257;DHT22;7731;50.720;6.912;2023-01-19T12:21:43;6.30;99.90
15257;DHT22;7731;50.720;6.912;2023-01-19T12:24:26;6.20;99.90
15257;DHT22;7731;50.720;6.912;2023-01-19T12:27:00;6.30;99.90
15257;DHT22;7731;50.720;6.912;2023-01-19T12:29:39;6.60;99.90
15257;DHT22;7731;50.720;6.912;2023-01-19T12:32:30;6.60;99.90
15257;DHT22;7731;50.720;6.912;2023-01-19T12:35:04;6.50;99.90
15257;DHT22;7731;50.720;6.912;2023-01-19T12:37:39;6.40;99.90
15257;DHT22;7731;50.720;6.912;2023-01-19T12:40:25;6.50;99.90
15257;DHT22;7731;50.720;6.912;2023-01-19T12:43:03;6.40;99.90
15257;DHT22;7731;50.720;6.912;2023-01-19T12:45:37;6.40;99.90
15257;DHT22;7731;50.720;6.912;2023-01-19T12:48:22;6.40;99.90
15257;DHT22;7731;50.720;6.912;2023-01-19T12:50:55;6.30;99.90
15257;DHT22;7731;50.720;6.912;2023-01-19T12:53:25;6.40;99.90
15257;DHT22;7731;50.720;6.912;2023-01-19T12:55:59;6.50;99.90
15257;DHT22;7731;50.720;6.912;2023-01-19T12:58:35;6.40;99.90
15257;DHT22;7731;50.720;6.912;2023-01-19T13:01:16;6.20;99.90
15257;DHT22;7731;50.720;6.912;2023-01-19T13:04:00;6.10;99.90
15257;DHT22;7731;50.720;6.912;2023-01-19T13:09:37;6.30;99.90
15257;DHT22;7731;50.720;6.912;2023-01-19T13:12:23;6.30;99.90
15257;DHT22;7731;50.720;6.912;2023-01-19T13:15:25;6.40;99.90
15257;DHT22;7731;50.720;6.912;2023-01-19T13:18:00;6.60;99.90
15257;DHT22;7731;50.720;6.912;2023-01-19T13:20:40;6.80;99.90
15257;DHT22;7731;50.720;6.912;2023-01-19T13:23:50;6.80;99.90
15257;DHT22;7731;50.720;6.912;2023-01-19T13:26:29;6.70;99.90
15257;DHT22;7731;50.720;6.912;2023-01-19T13:29:06;6.50;99.90
15257;DHT22;7731;50.720;6.912;2023-01-19T13:31:43;6.20;99.90
15257;DHT22;7731;50.720;6.912;2023-01-19T13:34:22;6.00;99.90
15257;DHT22;7731;50.720;6.912;2023-01-19T13:36:56;5.90;99.90
15257;DHT22;7731;50.720;6.912;2023-01-19T13:39:30;5.70;99.90
15257;DHT22;7731;50.720;6.912;2023-01-19T13:42:12;5.60;99.90
15257;DHT22;7731;50.720;6.912;2023-01-19T13:44:47;5.40;99.90
15257;DHT22;7731;50.720;6.912;2023-01-19T13:47:24;5.30;99.90
15257;DHT22;7731;50.720;6.912;2023-01-19T13:50:12;5.00;99.90
15257;DHT22;7731;50.720;6.912;2023-01-19T13:52:48;4.70;99.90
15257;DHT22;7731;50.720;6.912;2023-01-19T13:55:22;4.70;99.90
15257;DHT22;7731;50.720;6.912;2023-01-19T13:57:53;4.70;99.90
15257;DHT22;7731;50.720;6.912;2023-01-19T14:00:26;4.70;99.90
15257;DHT22;7731;50.720;6.912;2023-01-19T14:03:00;4.70;99.90
15257;DHT22;7731;50.720;6.912;2023-01-19T14:05:45;4.70;99.90
15257;DHT22;7731;50.720;6.912;2023-01-19T14:08:19;4.70;99.90
15257;DHT22;7731;50.720;6.912;2023-01-19T14:11:01;4.60;99.90
15257;DHT22;7731;50.720;6.912;2023-01-19T14:13:34;4.60;99.90
15257;DHT22;7731;50.720;6.912;2023-01-19T14:16:14;4.50;99.90
15257;DHT22;7731;50.720;6.912;2023-01-19T14:18:58;4.50;99.90
15257;DHT22;7731;50.720;6.912;2023-01-19T14:21:40;4.40;99.90
15257;DHT22;7731;50.720;6.912;2023-01-19T14:24:16;4.40;99.90
15257;DHT22;7731;50.720;6.912;2023-01-19T14:26:48;4.30;99.90
15257;DHT22;7731;50.720;6.912;2023-01-19T14:29:24;4.30;99.90
15257;DHT22;7731;50.720;6.912;2023-01-19T14:32:16;4.40;99.90
15257;DHT22;7731;50.720;6.912;2023-01-19T14:34:50;4.40;99.90
15257;DHT22;7731;50.720;6.912;2023-01-19T14:37:33;4.30;99.90
15257;DHT22;7731;50.720;6.912;2023-01-19T14:40:16;4.30;99.90
15257;DHT22;7731;50.720;6.912;2023-01-19T14:42:55;4.30;99.90
15257;DHT22;7731;50.720;6.912;2023-01-19T14:45:31;4.30;99.90
15257;DHT22;7731;50.720;6.912;2023-01-19T14:48:11;4.30;99.90
15257;DHT22;7731;50.720;6.912;2023-01-19T14:50:47;4.30;99.90
15257;DHT22;7731;50.720;6.912;2023-01-19T14:53:35;4.30;99.90
15257;DHT22;7731;50.720;6.912;2023-01-19T14:56:07;4.30;99.90
15257;DHT22;7731;50.720;6.912;2023-01-19T14:58:37;4.40;99.90
15257;DHT22;7731;50.720;6.912;2023-01-19T15:01:08;4.20;99.90
15257;DHT22;7731;50.720;6.912;2023-01-19T15:03:39;4.10;99.90
15257;DHT22;7731;50.720;6.912;2023-01-19T15:06:13;4.10;99.90
15257;DHT22;7731;50.720;6.912;2023-01-19T15:08:48;4.10;99.90
15257;DHT22;7731;50.720;6.912;2023-01-19T15:11:22;4.10;99.90
15257;DHT22;7731;50.720;6.912;2023-01-19T15:13:55;4.20;99.90
15257;DHT22;7731;50.720;6.912;2023-01-19T15:16:27;4.20;99.90
15257;DHT22;7731;50.720;6.912;2023-01-19T15:18:59;4.30;99.90
15257;DHT22;7731;50.720;6.912;2023-01-19T15:21:29;4.30;99.90
15257;DHT22;7731;50.720;6.912;2023-01-19T15:24:03;4.30;99.90
15257;DHT22;7731;50.720;6.912;2023-01-19T15:26:35;4.20;99.90
15257;DHT22;7731;50.720;6.912;2023-01-19T15:29:17;4.20;99.90
15257;DHT22;7731;50.720;6.912;2023-01-19T15:31:52;4.10;99.90
15257;DHT22;7731;50.720;6.912;2023-01-19T15:34:22;4.10;99.90
15257;DHT22;7731;50.720;6.912;2023-01-19T15:36:52;4.00;99.90
15257;DHT22;7731;50.720;6.912;2023-01-19T15:39:25;4.10;99.90
15257;DHT22;7731;50.720;6.912;2023-01-19T15:41:55;4.20;99.90
15257;DHT22;7731;50.720;6.912;2023-01-19T15:44:26;4.10;99.90
15257;DHT22;7731;50.720;6.912;2023-01-19T15:47:03;4.00;99.90
15257;DHT22;7731;50.720;6.912;2023-01-19T15:49:34;3.90;99.90
15257;DHT22;7731;50.720;6.912;2023-01-19T15:52:04;3.70;99.90
15257;DHT22;7731;50.720;6.912;2023-01-19T15:54:37;3.60;99.90
15257;DHT22;7731;50.720;6.912;2023-01-19T15:57:07;3.60;99.90
15257;DHT22;7731;50.720;6.912;2023-01-19T15:59:39;3.60;99.90
15257;DHT22;7731;50.720;6.912;2023-01-19T16:02:12;3.60;99.90
15257;DHT22;7731;50.720;6.912;2023-01-19T16:04:47;3.60;99.90
15257;DHT22;7731;50.720;6.912;2023-01-19T16:07:20;3.60;99.90
15257;DHT22;7731;50.720;6.912;2023-01-19T16:09:52;3.60;99.90
15257;DHT22;7731;50.720;6.912;2023-01-19T16:12:23;3.60;99.90
15257;DHT22;7731;50.720;6.912;2023-01-19T16:14:53;3.60;99.90
15257;DHT22;7731;50.720;6.912;2023-01-19T16:17:23;3.60;99.90
15257;DHT22;7731;50.720;6.912;2023-01-19T16:19:54;3.60;99.90
15257;DHT22;7731;50.720;6.912;2023-01-19T16:22:24;3.50;99.90
15257;DHT22;7731;50.720;6.912;2023-01-19T16:24:57;3.50;99.90
15257;DHT22;7731;50.720;6.912;2023-01-19T16:27:27;3.40;99.90
15257;DHT22;7731;50.720;6.912;2023-01-19T16:30:00;3.40;99.90
15257;DHT22;7731;50.720;6.912;2023-01-19T16:32:32;3.30;99.90
15257;DHT22;7731;50.720;6.912;2023-01-19T16:35:05;3.20;99.90
15257;DHT22;7731;50.720;6.912;2023-01-19T16:37:38;3.10;99.90
15257;DHT22;7731;50.720;6.912;2023-01-19T16:40:12;3.10;99.90
15257;DHT22;7731;50.720;6.912;2023-01-19T16:42:43;3.10;99.90
15257;DHT22;7731;50.720;6.912;2023-01-19T16:45:19;3.00;99.90
15257;DHT22;7731;50.720;6.912;2023-01-19T16:47:49;3.00;99.90
15257;DHT22;7731;50.720;6.912;2023-01-19T16:50:20;3.00;99.90
15257;DHT22;7731;50.720;6.912;2023-01-19T16:52:55;2.90;99.90
15257;DHT22;7731;50.720;6.912;2023-01-19T16:55:28;3.00;99.90
15257;DHT22;7731;50.720;6.912;2023-01-19T16:57:59;2.90;99.90
15257;DHT22;7731;50.720;6.912;2023-01-19T17:00:29;2.80;99.90